메인 페이지
METAR-TAF:

METAR-TAF

공항 :

Talara, 페루

위도: 04-34S, 경도: 081-15W, 고도: 85m

현재 날씨관측

예보는 36분 전, 16:00시(UTC)에 발표되었습니다.
온도 30°C
습도 66%
기압
시정 10km 이상
고도 2000ft 상공 구름 조금
고도 6000ft 상공 구름 보통

METAR: SPYL 021600Z /////KT 9999 FEW020 SCT060 30/23 Q//// RMK BIRD HAZARD RWY 17/35 PP000

시각: 11:36 (16:36 UTC)

예보

예보는 5 시간 36분 전, 11:00시(UTC)에 발표되었습니다.
예보 대상 시간: 02일 12시부터 03일 12시까지 (UTC)
14kt
시정 10km 이상
고도 4000ft 상공 구름 보통

TAF: SPYL 021100Z 0212/0312 18014KT 9999 SCT040 TX31/0218Z TN23/0310Z

4,000개 이상의 공항 관측 자료 및 예보 (METAR 및 TAF 보고).

지도상에서 검색 가능한 기상관측소가 노란 점과 빨간 점으로 표시되어 있습니다.

기상관측소 명을 보려면 표시 위로 마우스를 이동하세요.

날씨 관측과 예보를 보려면 클릭하세요.

지도 변경 : 확대하려면 엑스 표시가 있는 녹색 버튼, 축소하려면 빼기 표시가 있는 녹색 버튼, 다음 페이지의 지도를 보려면 녹색 화살표를 클릭하세요.


METAR-TAF: